sensor_id;sensor_type;location;lat;lon;timestamp;pressure;altitude;pressure_sealevel;temperature;humidity
60015;BME280;45867;52.480;6.056;2023-06-26T00:01:12;101161.00;;;22.71;100.00
60015;BME280;45867;52.480;6.056;2023-06-26T00:03:37;101167.75;;;22.77;100.00
60015;BME280;45867;52.480;6.056;2023-06-26T00:06:02;101164.34;;;22.80;100.00
60015;BME280;45867;52.480;6.056;2023-06-26T00:08:28;101164.47;;;22.83;100.00
60015;BME280;45867;52.480;6.056;2023-06-26T00:10:54;101157.28;;;22.75;100.00
60015;BME280;45867;52.480;6.056;2023-06-26T00:13:19;101154.91;;;22.74;100.00
60015;BME280;45867;52.480;6.056;2023-06-26T00:15:45;101163.16;;;22.65;100.00
60015;BME280;45867;52.480;6.056;2023-06-26T00:18:10;101152.34;;;22.53;100.00
60015;BME280;45867;52.480;6.056;2023-06-26T00:20:35;101146.06;;;22.49;100.00
60015;BME280;45867;52.480;6.056;2023-06-26T00:23:01;101140.78;;;22.40;100.00
60015;BME280;45867;52.480;6.056;2023-06-26T00:25:29;101142.25;;;22.37;100.00
60015;BME280;45867;52.480;6.056;2023-06-26T00:27:54;101133.69;;;22.35;100.00
60015;BME280;45867;52.480;6.056;2023-06-26T00:30:19;101142.47;;;22.32;100.00
60015;BME280;45867;52.480;6.056;2023-06-26T00:32:45;101145.16;;;22.32;100.00
60015;BME280;45867;52.480;6.056;2023-06-26T00:35:10;101132.00;;;22.31;100.00
60015;BME280;45867;52.480;6.056;2023-06-26T00:37:35;101133.34;;;22.25;100.00
60015;BME280;45867;52.480;6.056;2023-06-26T00:40:01;101131.06;;;22.14;100.00
60015;BME280;45867;52.480;6.056;2023-06-26T00:42:26;101126.09;;;22.04;100.00
60015;BME280;45867;52.480;6.056;2023-06-26T00:44:52;101121.28;;;21.98;100.00
60015;BME280;45867;52.480;6.056;2023-06-26T00:47:17;101125.78;;;21.93;100.00
60015;BME280;45867;52.480;6.056;2023-06-26T00:49:43;101122.28;;;21.93;100.00
60015;BME280;45867;52.480;6.056;2023-06-26T00:52:09;101113.03;;;21.82;100.00
60015;BME280;45867;52.480;6.056;2023-06-26T00:54:34;101117.97;;;21.80;100.00
60015;BME280;45867;52.480;6.056;2023-06-26T00:57:00;101120.78;;;21.71;100.00
60015;BME280;45867;52.480;6.056;2023-06-26T00:59:28;101115.38;;;21.71;100.00
60015;BME280;45867;52.480;6.056;2023-06-26T01:01:56;101112.59;;;21.67;100.00
60015;BME280;45867;52.480;6.056;2023-06-26T01:04:22;101107.97;;;21.68;100.00
60015;BME280;45867;52.480;6.056;2023-06-26T01:06:52;101108.31;;;21.66;100.00
60015;BME280;45867;52.480;6.056;2023-06-26T01:09:18;101108.19;;;21.63;100.00
60015;BME280;45867;52.480;6.056;2023-06-26T01:11:44;101105.69;;;21.58;100.00
60015;BME280;45867;52.480;6.056;2023-06-26T01:14:10;101107.50;;;21.54;100.00
60015;BME280;45867;52.480;6.056;2023-06-26T01:16:36;101101.84;;;21.46;100.00
60015;BME280;45867;52.480;6.056;2023-06-26T01:19:04;101115.13;;;21.52;100.00
60015;BME280;45867;52.480;6.056;2023-06-26T01:21:35;101112.69;;;21.59;100.00
60015;BME280;45867;52.480;6.056;2023-06-26T01:24:13;101114.25;;;21.60;100.00
60015;BME280;45867;52.480;6.056;2023-06-26T01:26:49;101103.72;;;21.79;100.00
60015;BME280;45867;52.480;6.056;2023-06-26T01:29:16;101099.03;;;22.13;100.00
60015;BME280;45867;52.480;6.056;2023-06-26T01:31:43;101107.72;;;22.19;100.00
60015;BME280;45867;52.480;6.056;2023-06-26T01:34:11;101105.22;;;22.13;100.00
60015;BME280;45867;52.480;6.056;2023-06-26T01:36:37;101101.19;;;22.20;100.00
60015;BME280;45867;52.480;6.056;2023-06-26T01:39:03;101090.94;;;22.13;100.00
60015;BME280;45867;52.480;6.056;2023-06-26T01:41:28;101090.56;;;22.14;100.00
60015;BME280;45867;52.480;6.056;2023-06-26T01:49:15;101105.31;;;22.05;100.00
60015;BME280;45867;52.480;6.056;2023-06-26T01:54:33;101112.59;;;22.04;100.00
60015;BME280;45867;52.480;6.056;2023-06-26T01:57:00;101118.16;;;22.08;100.00
60015;BME280;45867;52.480;6.056;2023-06-26T01:59:28;101113.75;;;22.03;100.00
60015;BME280;45867;52.480;6.056;2023-06-26T02:01:56;101117.34;;;21.95;100.00
60015;BME280;45867;52.480;6.056;2023-06-26T02:04:21;101115.31;;;21.92;100.00
60015;BME280;45867;52.480;6.056;2023-06-26T02:06:47;101113.63;;;21.87;100.00
60015;BME280;45867;52.480;6.056;2023-06-26T02:09:12;101125.06;;;21.84;100.00
60015;BME280;45867;52.480;6.056;2023-06-26T02:11:37;101124.97;;;21.81;100.00
60015;BME280;45867;52.480;6.056;2023-06-26T02:14:03;101129.66;;;21.71;100.00
60015;BME280;45867;52.480;6.056;2023-06-26T02:16:29;101133.22;;;21.63;100.00
60015;BME280;45867;52.480;6.056;2023-06-26T02:18:54;101137.63;;;21.56;100.00
60015;BME280;45867;52.480;6.056;2023-06-26T02:21:20;101137.69;;;21.47;100.00
60015;BME280;45867;52.480;6.056;2023-06-26T02:23:45;101131.28;;;21.39;100.00
60015;BME280;45867;52.480;6.056;2023-06-26T02:26:11;101135.13;;;21.29;100.00
60015;BME280;45867;52.480;6.056;2023-06-26T02:28:36;101130.53;;;21.30;100.00
60015;BME280;45867;52.480;6.056;2023-06-26T02:31:01;101130.53;;;21.30;100.00
60015;BME280;45867;52.480;6.056;2023-06-26T02:33:27;101126.47;;;21.24;100.00
60015;BME280;45867;52.480;6.056;2023-06-26T02:35:52;101130.72;;;21.25;100.00
60015;BME280;45867;52.480;6.056;2023-06-26T02:38:18;101128.69;;;21.22;100.00
60015;BME280;45867;52.480;6.056;2023-06-26T02:40:43;101126.00;;;21.22;100.00
60015;BME280;45867;52.480;6.056;2023-06-26T02:43:09;101116.66;;;21.19;100.00
60015;BME280;45867;52.480;6.056;2023-06-26T02:45:34;101126.19;;;21.17;100.00
60015;BME280;45867;52.480;6.056;2023-06-26T02:48:00;101125.28;;;21.13;100.00
60015;BME280;45867;52.480;6.056;2023-06-26T02:50:26;101120.56;;;21.10;100.00
60015;BME280;45867;52.480;6.056;2023-06-26T02:52:51;101128.72;;;21.01;100.00
60015;BME280;45867;52.480;6.056;2023-06-26T02:55:18;101138.19;;;21.07;100.00
60015;BME280;45867;52.480;6.056;2023-06-26T02:57:44;101133.53;;;20.95;100.00
60015;BME280;45867;52.480;6.056;2023-06-26T03:00:10;101136.84;;;20.92;100.00
60015;BME280;45867;52.480;6.056;2023-06-26T03:02:36;101142.25;;;20.92;100.00
60015;BME280;45867;52.480;6.056;2023-06-26T03:05:02;101154.25;;;20.95;100.00
60015;BME280;45867;52.480;6.056;2023-06-26T03:07:28;101154.53;;;21.02;100.00
60015;BME280;45867;52.480;6.056;2023-06-26T03:09:53;101150.31;;;20.92;100.00
60015;BME280;45867;52.480;6.056;2023-06-26T03:12:18;101153.84;;;20.84;100.00
60015;BME280;45867;52.480;6.056;2023-06-26T03:14:44;101153.13;;;20.75;100.00
60015;BME280;45867;52.480;6.056;2023-06-26T03:17:09;101156.38;;;20.68;100.00
60015;BME280;45867;52.480;6.056;2023-06-26T03:19:34;101155.59;;;20.59;100.00
60015;BME280;45867;52.480;6.056;2023-06-26T03:22:00;101151.50;;;20.53;100.00
60015;BME280;45867;52.480;6.056;2023-06-26T03:24:25;101147.06;;;20.57;100.00
60015;BME280;45867;52.480;6.056;2023-06-26T03:26:50;101145.03;;;20.54;100.00
60015;BME280;45867;52.480;6.056;2023-06-26T03:29:16;101142.63;;;20.61;100.00
60015;BME280;45867;52.480;6.056;2023-06-26T03:31:42;101140.38;;;20.63;100.00
60015;BME280;45867;52.480;6.056;2023-06-26T03:34:07;101136.69;;;20.68;100.00
60015;BME280;45867;52.480;6.056;2023-06-26T03:36:33;101148.88;;;20.74;100.00
60015;BME280;45867;52.480;6.056;2023-06-26T03:38:58;101146.03;;;20.70;100.00
60015;BME280;45867;52.480;6.056;2023-06-26T03:41:24;101139.88;;;20.70;100.00
60015;BME280;45867;52.480;6.056;2023-06-26T03:43:49;101150.75;;;20.73;100.00
60015;BME280;45867;52.480;6.056;2023-06-26T03:46:14;101145.34;;;20.82;100.00
60015;BME280;45867;52.480;6.056;2023-06-26T03:48:40;101140.47;;;20.75;100.00
60015;BME280;45867;52.480;6.056;2023-06-26T03:51:05;101155.97;;;20.78;100.00
60015;BME280;45867;52.480;6.056;2023-06-26T03:53:32;101152.22;;;20.71;100.00
60015;BME280;45867;52.480;6.056;2023-06-26T03:55:57;101151.59;;;20.65;100.00
60015;BME280;45867;52.480;6.056;2023-06-26T03:58:23;101157.97;;;20.60;100.00
60015;BME280;45867;52.480;6.056;2023-06-26T04:00:48;101163.22;;;20.48;100.00
60015;BME280;45867;52.480;6.056;2023-06-26T04:03:13;101170.56;;;20.39;100.00
60015;BME280;45867;52.480;6.056;2023-06-26T04:05:39;101170.09;;;20.37;100.00
60015;BME280;45867;52.480;6.056;2023-06-26T04:08:04;101180.25;;;20.31;100.00
60015;BME280;45867;52.480;6.056;2023-06-26T04:10:29;101178.88;;;20.25;100.00
60015;BME280;45867;52.480;6.056;2023-06-26T04:12:55;101195.19;;;20.20;100.00
60015;BME280;45867;52.480;6.056;2023-06-26T04:15:20;101201.84;;;20.14;100.00
60015;BME280;45867;52.480;6.056;2023-06-26T04:17:46;101201.53;;;20.15;100.00
60015;BME280;45867;52.480;6.056;2023-06-26T04:20:11;101206.59;;;20.17;100.00
60015;BME280;45867;52.480;6.056;2023-06-26T04:22:36;101193.44;;;20.15;100.00
60015;BME280;45867;52.480;6.056;2023-06-26T04:25:03;101200.88;;;20.27;100.00
60015;BME280;45867;52.480;6.056;2023-06-26T04:27:28;101199.09;;;20.31;100.00
60015;BME280;45867;52.480;6.056;2023-06-26T04:29:54;101204.44;;;20.40;100.00
60015;BME280;45867;52.480;6.056;2023-06-26T04:32:19;101206.88;;;20.33;100.00
60015;BME280;45867;52.480;6.056;2023-06-26T04:34:44;101212.41;;;20.28;100.00
60015;BME280;45867;52.480;6.056;2023-06-26T04:37:10;101213.69;;;20.30;100.00
60015;BME280;45867;52.480;6.056;2023-06-26T04:39:36;101216.84;;;20.24;100.00
60015;BME280;45867;52.480;6.056;2023-06-26T04:42:03;101213.56;;;20.09;100.00
60015;BME280;45867;52.480;6.056;2023-06-26T04:44:28;101213.75;;;20.04;100.00
60015;BME280;45867;52.480;6.056;2023-06-26T04:46:54;101217.41;;;19.91;100.00
60015;BME280;45867;52.480;6.056;2023-06-26T04:49:19;101210.63;;;19.85;100.00
60015;BME280;45867;52.480;6.056;2023-06-26T04:51:45;101229.31;;;19.81;100.00
60015;BME280;45867;52.480;6.056;2023-06-26T04:54:11;101224.41;;;19.66;100.00
60015;BME280;45867;52.480;6.056;2023-06-26T04:56:36;101226.13;;;19.62;100.00
60015;BME280;45867;52.480;6.056;2023-06-26T04:59:05;101223.75;;;19.60;100.00
60015;BME280;45867;52.480;6.056;2023-06-26T05:01:30;101234.03;;;19.58;100.00
60015;BME280;45867;52.480;6.056;2023-06-26T05:03:57;101241.94;;;19.63;100.00
60015;BME280;45867;52.480;6.056;2023-06-26T05:06:25;101248.09;;;19.64;100.00
60015;BME280;45867;52.480;6.056;2023-06-26T05:08:51;101244.50;;;19.68;100.00
60015;BME280;45867;52.480;6.056;2023-06-26T05:11:16;101238.16;;;19.64;100.00
60015;BME280;45867;52.480;6.056;2023-06-26T05:13:41;101238.34;;;19.68;100.00
60015;BME280;45867;52.480;6.056;2023-06-26T05:16:08;101248.94;;;19.73;100.00
60015;BME280;45867;52.480;6.056;2023-06-26T05:18:34;101253.34;;;19.86;100.00
60015;BME280;45867;52.480;6.056;2023-06-26T05:21:00;101254.28;;;19.90;100.00
60015;BME280;45867;52.480;6.056;2023-06-26T05:23:25;101264.25;;;19.90;100.00
60015;BME280;45867;52.480;6.056;2023-06-26T05:25:52;101270.06;;;20.09;100.00
60015;BME280;45867;52.480;6.056;2023-06-26T05:28:18;101265.44;;;20.36;100.00
60015;BME280;45867;52.480;6.056;2023-06-26T05:30:43;101264.44;;;20.40;100.00
60015;BME280;45867;52.480;6.056;2023-06-26T05:33:11;101273.47;;;20.53;100.00
60015;BME280;45867;52.480;6.056;2023-06-26T05:35:37;101273.25;;;20.67;100.00
60015;BME280;45867;52.480;6.056;2023-06-26T05:38:08;101269.91;;;20.79;100.00
60015;BME280;45867;52.480;6.056;2023-06-26T05:40:34;101278.94;;;21.04;100.00
60015;BME280;45867;52.480;6.056;2023-06-26T05:42:59;101285.00;;;21.22;100.00
60015;BME280;45867;52.480;6.056;2023-06-26T05:45:25;101263.63;;;21.17;100.00
60015;BME280;45867;52.480;6.056;2023-06-26T05:47:50;101292.19;;;21.47;100.00
60015;BME280;45867;52.480;6.056;2023-06-26T05:50:17;101299.56;;;21.29;100.00
60015;BME280;45867;52.480;6.056;2023-06-26T05:52:43;101302.03;;;21.43;100.00
60015;BME280;45867;52.480;6.056;2023-06-26T05:55:09;101312.97;;;21.17;100.00
60015;BME280;45867;52.480;6.056;2023-06-26T05:57:37;101309.66;;;21.12;100.00
60015;BME280;45867;52.480;6.056;2023-06-26T06:00:03;101309.44;;;21.17;100.00
60015;BME280;45867;52.480;6.056;2023-06-26T06:02:30;101328.47;;;21.20;100.00
60015;BME280;45867;52.480;6.056;2023-06-26T06:04:56;101333.03;;;21.58;100.00
60015;BME280;45867;52.480;6.056;2023-06-26T06:07:21;101337.88;;;21.44;100.00
60015;BME280;45867;52.480;6.056;2023-06-26T06:09:47;101331.44;;;21.57;100.00
60015;BME280;45867;52.480;6.056;2023-06-26T06:12:12;101336.28;;;21.43;100.00
60015;BME280;45867;52.480;6.056;2023-06-26T06:14:37;101341.91;;;21.59;100.00
60015;BME280;45867;52.480;6.056;2023-06-26T06:17:03;101341.88;;;21.80;100.00
60015;BME280;45867;52.480;6.056;2023-06-26T06:19:28;101340.16;;;21.96;100.00
60015;BME280;45867;52.480;6.056;2023-06-26T06:21:54;101354.03;;;22.07;100.00
60015;BME280;45867;52.480;6.056;2023-06-26T06:24:19;101365.06;;;22.02;100.00
60015;BME280;45867;52.480;6.056;2023-06-26T06:26:45;101359.81;;;22.17;100.00
60015;BME280;45867;52.480;6.056;2023-06-26T06:29:10;101370.75;;;22.42;100.00
60015;BME280;45867;52.480;6.056;2023-06-26T06:31:35;101377.06;;;22.46;100.00
60015;BME280;45867;52.480;6.056;2023-06-26T06:34:01;101378.44;;;22.52;100.00
60015;BME280;45867;52.480;6.056;2023-06-26T06:36:26;101391.53;;;22.75;100.00
60015;BME280;45867;52.480;6.056;2023-06-26T06:38:52;101398.31;;;22.93;100.00
60015;BME280;45867;52.480;6.056;2023-06-26T06:41:17;101397.34;;;22.98;100.00
60015;BME280;45867;52.480;6.056;2023-06-26T06:43:43;101396.66;;;22.55;100.00
60015;BME280;45867;52.480;6.056;2023-06-26T06:46:08;101401.69;;;22.90;100.00
60015;BME280;45867;52.480;6.056;2023-06-26T06:48:34;101400.06;;;23.10;100.00
60015;BME280;45867;52.480;6.056;2023-06-26T06:50:59;101405.31;;;23.68;100.00
60015;BME280;45867;52.480;6.056;2023-06-26T06:53:25;101414.66;;;23.70;100.00
60015;BME280;45867;52.480;6.056;2023-06-26T06:55:50;101421.25;;;23.82;100.00
60015;BME280;45867;52.480;6.056;2023-06-26T06:58:15;101432.19;;;23.36;100.00
60015;BME280;45867;52.480;6.056;2023-06-26T07:00:48;101438.34;;;23.12;100.00
60015;BME280;45867;52.480;6.056;2023-06-26T07:03:14;101431.19;;;23.41;100.00
60015;BME280;45867;52.480;6.056;2023-06-26T07:05:43;101428.31;;;23.99;100.00
60015;BME280;45867;52.480;6.056;2023-06-26T07:08:09;101446.06;;;24.52;100.00
60015;BME280;45867;52.480;6.056;2023-06-26T07:10:34;101467.38;;;24.82;100.00
60015;BME280;45867;52.480;6.056;2023-06-26T07:13:00;101459.41;;;23.92;100.00
60015;BME280;45867;52.480;6.056;2023-06-26T07:15:25;101459.69;;;23.75;100.00
60015;BME280;45867;52.480;6.056;2023-06-26T07:17:51;101450.31;;;23.73;100.00
60015;BME280;45867;52.480;6.056;2023-06-26T07:20:16;101453.22;;;23.92;100.00
60015;BME280;45867;52.480;6.056;2023-06-26T07:22:42;101465.13;;;24.15;100.00
60015;BME280;45867;52.480;6.056;2023-06-26T07:25:08;101463.84;;;24.66;100.00
60015;BME280;45867;52.480;6.056;2023-06-26T07:27:35;101470.94;;;24.42;100.00
60015;BME280;45867;52.480;6.056;2023-06-26T07:30:01;101480.28;;;24.04;100.00
60015;BME280;45867;52.480;6.056;2023-06-26T07:32:26;101472.25;;;24.08;100.00
60015;BME280;45867;52.480;6.056;2023-06-26T07:34:51;101486.66;;;24.24;100.00
60015;BME280;45867;52.480;6.056;2023-06-26T07:37:17;101487.53;;;23.76;100.00
60015;BME280;45867;52.480;6.056;2023-06-26T07:39:42;101480.19;;;23.64;100.00
60015;BME280;45867;52.480;6.056;2023-06-26T07:42:07;101490.88;;;23.23;100.00
60015;BME280;45867;52.480;6.056;2023-06-26T07:44:33;101496.28;;;23.23;100.00
60015;BME280;45867;52.480;6.056;2023-06-26T07:46:58;101483.00;;;23.67;100.00
60015;BME280;45867;52.480;6.056;2023-06-26T07:49:23;101494.94;;;23.54;100.00
60015;BME280;45867;52.480;6.056;2023-06-26T07:51:49;101499.53;;;23.29;100.00
60015;BME280;45867;52.480;6.056;2023-06-26T07:54:14;101495.78;;;23.79;100.00
60015;BME280;45867;52.480;6.056;2023-06-26T07:57:00;101507.00;;;24.58;100.00
60015;BME280;45867;52.480;6.056;2023-06-26T07:59:27;101510.25;;;24.92;100.00
60015;BME280;45867;52.480;6.056;2023-06-26T08:01:54;101506.06;;;25.11;100.00
60015;BME280;45867;52.480;6.056;2023-06-26T08:04:23;101518.41;;;26.23;100.00
60015;BME280;45867;52.480;6.056;2023-06-26T08:06:50;101539.97;;;26.51;100.00
60015;BME280;45867;52.480;6.056;2023-06-26T08:09:16;101532.50;;;25.14;100.00
60015;BME280;45867;52.480;6.056;2023-06-26T08:11:42;101528.22;;;24.04;100.00
60015;BME280;45867;52.480;6.056;2023-06-26T08:14:07;101520.88;;;24.85;100.00
60015;BME280;45867;52.480;6.056;2023-06-26T08:16:33;101528.59;;;24.83;100.00
60015;BME280;45867;52.480;6.056;2023-06-26T08:18:58;101529.47;;;24.59;100.00
60015;BME280;45867;52.480;6.056;2023-06-26T08:21:24;101531.44;;;24.74;100.00
60015;BME280;45867;52.480;6.056;2023-06-26T08:23:49;101532.47;;;23.68;100.00
60015;BME280;45867;52.480;6.056;2023-06-26T08:26:14;101525.16;;;22.98;100.00
60015;BME280;45867;52.480;6.056;2023-06-26T08:28:40;101518.47;;;24.27;100.00
60015;BME280;45867;52.480;6.056;2023-06-26T08:31:05;101533.59;;;25.57;100.00
60015;BME280;45867;52.480;6.056;2023-06-26T08:33:31;101537.16;;;25.45;100.00
60015;BME280;45867;52.480;6.056;2023-06-26T08:35:56;101541.22;;;25.51;100.00
60015;BME280;45867;52.480;6.056;2023-06-26T08:38:21;101538.56;;;24.26;100.00
60015;BME280;45867;52.480;6.056;2023-06-26T08:40:47;101547.84;;;24.01;100.00
60015;BME280;45867;52.480;6.056;2023-06-26T08:43:13;101548.69;;;23.43;100.00
60015;BME280;45867;52.480;6.056;2023-06-26T08:45:38;101541.56;;;24.49;100.00
60015;BME280;45867;52.480;6.056;2023-06-26T08:48:07;101539.19;;;25.48;100.00
60015;BME280;45867;52.480;6.056;2023-06-26T08:50:34;101558.34;;;25.39;100.00
60015;BME280;45867;52.480;6.056;2023-06-26T08:55:30;101558.75;;;24.53;100.00
60015;BME280;45867;52.480;6.056;2023-06-26T08:57:57;101568.03;;;24.03;100.00
60015;BME280;45867;52.480;6.056;2023-06-26T09:00:23;101566.97;;;24.85;100.00
60015;BME280;45867;52.480;6.056;2023-06-26T09:02:48;101569.22;;;26.03;100.00
60015;BME280;45867;52.480;6.056;2023-06-26T09:05:14;101576.06;;;25.65;100.00
60015;BME280;45867;52.480;6.056;2023-06-26T09:07:40;101577.38;;;25.11;100.00
60015;BME280;45867;52.480;6.056;2023-06-26T09:10:06;101586.41;;;24.87;100.00
60015;BME280;45867;52.480;6.056;2023-06-26T09:12:32;101573.69;;;24.23;100.00
60015;BME280;45867;52.480;6.056;2023-06-26T09:14:57;101583.44;;;25.20;100.00
60015;BME280;45867;52.480;6.056;2023-06-26T09:17:30;101580.63;;;25.17;100.00
60015;BME280;45867;52.480;6.056;2023-06-26T09:19:58;101587.00;;;25.68;100.00
60015;BME280;45867;52.480;6.056;2023-06-26T09:22:23;101592.53;;;25.88;100.00
60015;BME280;45867;52.480;6.056;2023-06-26T09:24:49;101603.34;;;25.72;100.00
60015;BME280;45867;52.480;6.056;2023-06-26T09:27:16;101592.81;;;26.18;100.00
60015;BME280;45867;52.480;6.056;2023-06-26T09:29:42;101590.69;;;26.63;100.00
60015;BME280;45867;52.480;6.056;2023-06-26T09:32:10;101604.50;;;27.12;100.00
60015;BME280;45867;52.480;6.056;2023-06-26T09:34:35;101605.31;;;26.39;100.00
60015;BME280;45867;52.480;6.056;2023-06-26T09:37:00;101613.44;;;27.78;100.00
60015;BME280;45867;52.480;6.056;2023-06-26T09:39:32;101604.09;;;26.91;100.00
60015;BME280;45867;52.480;6.056;2023-06-26T09:41:58;101602.47;;;26.00;100.00
60015;BME280;45867;52.480;6.056;2023-06-26T09:44:24;101615.78;;;23.96;100.00
60015;BME280;45867;52.480;6.056;2023-06-26T09:46:49;101617.44;;;24.62;100.00
60015;BME280;45867;52.480;6.056;2023-06-26T09:49:15;101630.75;;;24.95;100.00
60015;BME280;45867;52.480;6.056;2023-06-26T09:51:42;101632.34;;;25.68;100.00
60015;BME280;45867;52.480;6.056;2023-06-26T09:54:08;101631.13;;;26.64;100.00
60015;BME280;45867;52.480;6.056;2023-06-26T09:56:35;101634.53;;;26.26;100.00
60015;BME280;45867;52.480;6.056;2023-06-26T09:59:02;101628.69;;;27.60;100.00
60015;BME280;45867;52.480;6.056;2023-06-26T10:01:29;101638.97;;;27.70;100.00
60015;BME280;45867;52.480;6.056;2023-06-26T10:03:55;101652.19;;;27.26;100.00
60015;BME280;45867;52.480;6.056;2023-06-26T10:06:39;101644.03;;;27.72;100.00
60015;BME280;45867;52.480;6.056;2023-06-26T10:09:06;101650.84;;;27.81;100.00
60015;BME280;45867;52.480;6.056;2023-06-26T10:11:43;101647.97;;;27.51;100.00
60015;BME280;45867;52.480;6.056;2023-06-26T10:14:13;101651.00;;;27.69;100.00
60015;BME280;45867;52.480;6.056;2023-06-26T10:16:41;101674.41;;;28.20;100.00
60015;BME280;45867;52.480;6.056;2023-06-26T10:19:09;101657.31;;;26.21;100.00
60015;BME280;45867;52.480;6.056;2023-06-26T10:21:37;101665.63;;;26.28;100.00
60015;BME280;45867;52.480;6.056;2023-06-26T10:24:05;101672.78;;;27.07;100.00
60015;BME280;45867;52.480;6.056;2023-06-26T10:26:35;101666.28;;;26.57;100.00
60015;BME280;45867;52.480;6.056;2023-06-26T10:29:03;101682.22;;;27.52;99.59
60015;BME280;45867;52.480;6.056;2023-06-26T10:31:30;101678.50;;;28.33;97.75
60015;BME280;45867;52.480;6.056;2023-06-26T10:33:57;101687.63;;;27.29;99.68
60015;BME280;45867;52.480;6.056;2023-06-26T10:36:30;101677.75;;;27.83;100.00
60015;BME280;45867;52.480;6.056;2023-06-26T10:39:04;101683.28;;;27.90;100.00
60015;BME280;45867;52.480;6.056;2023-06-26T10:41:37;101694.47;;;25.85;100.00
60015;BME280;45867;52.480;6.056;2023-06-26T10:44:10;101704.53;;;26.48;100.00
60015;BME280;45867;52.480;6.056;2023-06-26T10:49:16;101692.41;;;25.95;100.00
60015;BME280;45867;52.480;6.056;2023-06-26T10:51:49;101714.13;;;26.77;100.00
60015;BME280;45867;52.480;6.056;2023-06-26T10:54:19;101704.84;;;26.11;100.00
60015;BME280;45867;52.480;6.056;2023-06-26T10:56:49;101707.94;;;25.38;100.00
60015;BME280;45867;52.480;6.056;2023-06-26T10:59:16;101713.75;;;26.12;100.00
60015;BME280;45867;52.480;6.056;2023-06-26T11:01:43;101699.44;;;25.67;100.00
60015;BME280;45867;52.480;6.056;2023-06-26T11:04:08;101709.03;;;25.09;100.00
60015;BME280;45867;52.480;6.056;2023-06-26T11:06:37;101708.88;;;25.74;100.00
60015;BME280;45867;52.480;6.056;2023-06-26T11:09:11;101714.59;;;24.38;100.00
60015;BME280;45867;52.480;6.056;2023-06-26T11:14:21;101714.44;;;25.09;100.00
60015;BME280;45867;52.480;6.056;2023-06-26T11:16:48;101715.16;;;24.93;100.00
60015;BME280;45867;52.480;6.056;2023-06-26T11:19:16;101727.25;;;26.08;100.00
60015;BME280;45867;52.480;6.056;2023-06-26T11:21:42;101724.41;;;25.45;100.00
60015;BME280;45867;52.480;6.056;2023-06-26T11:24:08;101720.81;;;25.41;100.00
60015;BME280;45867;52.480;6.056;2023-06-26T11:26:41;101739.28;;;26.55;100.00
60015;BME280;45867;52.480;6.056;2023-06-26T11:29:07;101722.34;;;26.14;100.00
60015;BME280;45867;52.480;6.056;2023-06-26T11:31:33;101738.97;;;27.31;100.00
60015;BME280;45867;52.480;6.056;2023-06-26T11:34:01;101751.44;;;26.45;100.00
60015;BME280;45867;52.480;6.056;2023-06-26T11:36:27;101746.09;;;26.17;100.00
60015;BME280;45867;52.480;6.056;2023-06-26T11:38:57;101743.06;;;27.40;98.92
60015;BME280;45867;52.480;6.056;2023-06-26T11:41:27;101732.03;;;26.98;100.00
60015;BME280;45867;52.480;6.056;2023-06-26T11:43:53;101746.78;;;26.46;100.00
60015;BME280;45867;52.480;6.056;2023-06-26T11:46:21;101753.47;;;26.99;97.77
60015;BME280;45867;52.480;6.056;2023-06-26T11:48:48;101761.31;;;27.20;97.42
60015;BME280;45867;52.480;6.056;2023-06-26T11:51:14;101769.31;;;26.78;100.00
60015;BME280;45867;52.480;6.056;2023-06-26T11:53:44;101758.25;;;25.91;100.00
60015;BME280;45867;52.480;6.056;2023-06-26T11:56:10;101758.69;;;25.65;100.00
60015;BME280;45867;52.480;6.056;2023-06-26T11:58:55;101763.34;;;25.81;100.00
60015;BME280;45867;52.480;6.056;2023-06-26T12:01:21;101765.91;;;26.18;100.00
60015;BME280;45867;52.480;6.056;2023-06-26T12:03:48;101777.22;;;26.67;100.00
60015;BME280;45867;52.480;6.056;2023-06-26T12:06:14;101780.41;;;25.94;100.00
60015;BME280;45867;52.480;6.056;2023-06-26T12:08:40;101799.16;;;26.59;99.27
60015;BME280;45867;52.480;6.056;2023-06-26T12:11:05;101799.31;;;26.34;97.96
60015;BME280;45867;52.480;6.056;2023-06-26T12:13:32;101790.78;;;26.20;99.10
60015;BME280;45867;52.480;6.056;2023-06-26T12:15:57;101804.28;;;26.16;100.00
60015;BME280;45867;52.480;6.056;2023-06-26T12:18:23;101787.41;;;27.06;100.00
60015;BME280;45867;52.480;6.056;2023-06-26T12:20:51;101801.38;;;27.39;96.98
60015;BME280;45867;52.480;6.056;2023-06-26T12:23:16;101792.28;;;26.49;97.55
60015;BME280;45867;52.480;6.056;2023-06-26T12:25:42;101796.25;;;25.63;99.81
60015;BME280;45867;52.480;6.056;2023-06-26T12:28:17;101800.19;;;25.38;98.33
60015;BME280;45867;52.480;6.056;2023-06-26T12:30:47;101818.53;;;24.09;100.00
60015;BME280;45867;52.480;6.056;2023-06-26T12:33:32;101811.28;;;24.96;100.00
60015;BME280;45867;52.480;6.056;2023-06-26T12:35:57;101818.88;;;25.67;100.00
60015;BME280;45867;52.480;6.056;2023-06-26T12:38:23;101832.53;;;24.81;100.00
60015;BME280;45867;52.480;6.056;2023-06-26T12:40:48;101824.22;;;24.29;100.00
60015;BME280;45867;52.480;6.056;2023-06-26T12:43:26;101814.91;;;24.51;100.00
60015;BME280;45867;52.480;6.056;2023-06-26T12:45:55;101818.56;;;24.34;100.00
60015;BME280;45867;52.480;6.056;2023-06-26T12:48:40;101809.25;;;25.05;100.00
60015;BME280;45867;52.480;6.056;2023-06-26T12:51:12;101818.75;;;25.11;100.00
60015;BME280;45867;52.480;6.056;2023-06-26T12:53:38;101817.94;;;24.49;100.00